createdAt,value
2023-04-08T00:01:10.010Z,4.04
2023-04-08T00:03:37.431Z,4.01
2023-04-08T00:06:05.080Z,4.02
2023-04-08T00:08:32.380Z,4.04
2023-04-08T00:11:00.753Z,4.03
2023-04-08T00:13:28.185Z,4.02
2023-04-08T00:15:55.573Z,4.00
2023-04-08T00:18:24.004Z,3.98
2023-04-08T00:20:51.673Z,3.98
2023-04-08T00:23:20.253Z,4.02
2023-04-08T00:25:47.691Z,4.05
2023-04-08T00:28:15.048Z,4.03
2023-04-08T00:30:48.445Z,4.05
2023-04-08T00:33:16.896Z,4.03
2023-04-08T00:35:44.346Z,3.97
2023-04-08T00:38:11.872Z,4.05
2023-04-08T00:40:39.433Z,4.06
2023-04-08T00:43:07.098Z,4.09
2023-04-08T00:45:34.603Z,4.07
2023-04-08T00:48:03.762Z,4.02
2023-04-08T00:50:31.654Z,4.05
2023-04-08T00:52:59.209Z,4.18
2023-04-08T00:55:26.763Z,4.17
2023-04-08T00:57:54.277Z,4.25
2023-04-08T01:00:21.653Z,4.27
2023-04-08T01:03:12.040Z,4.32
2023-04-08T01:06:11.761Z,4.41
2023-04-08T01:08:42.571Z,4.45
2023-04-08T01:11:14.065Z,4.43
2023-04-08T01:13:43.644Z,4.34
2023-04-08T01:16:14.662Z,4.29
2023-04-08T01:18:45.371Z,4.37
2023-04-08T01:21:13.387Z,4.32
2023-04-08T01:24:11.820Z,4.36
2023-04-08T01:26:45.914Z,4.31
2023-04-08T01:29:21.622Z,4.30
2023-04-08T01:31:52.250Z,4.31
2023-04-08T01:34:21.516Z,4.34
2023-04-08T01:36:50.269Z,4.33
2023-04-08T01:39:19.661Z,4.31
2023-04-08T01:41:48.063Z,4.25
2023-04-08T01:44:17.372Z,4.14
2023-04-08T01:46:44.988Z,4.14
2023-04-08T01:49:12.801Z,4.17
2023-04-08T01:51:41.487Z,4.09
2023-04-08T01:54:08.776Z,4.12
2023-04-08T01:56:39.819Z,4.11
2023-04-08T01:59:12.427Z,4.10
2023-04-08T02:01:44.926Z,4.12
2023-04-08T02:04:14.067Z,4.08
2023-04-08T02:06:41.770Z,3.98
2023-04-08T02:09:08.873Z,4.04
2023-04-08T02:11:36.353Z,4.06
2023-04-08T02:14:04.928Z,3.97
2023-04-08T02:16:43.810Z,4.09
2023-04-08T02:19:51.876Z,3.98
2023-04-08T02:22:51.074Z,3.86
2023-04-08T02:25:23.572Z,3.87
2023-04-08T02:27:56.385Z,3.93
2023-04-08T02:30:28.177Z,3.91
2023-04-08T02:32:57.428Z,3.86
2023-04-08T02:35:25.389Z,3.83
2023-04-08T02:37:52.941Z,3.88
2023-04-08T02:40:29.660Z,3.79
2023-04-08T02:42:57.256Z,3.78
2023-04-08T02:45:42.202Z,3.84
2023-04-08T02:48:11.547Z,3.87
2023-04-08T02:50:40.108Z,3.75
2023-04-08T02:53:09.626Z,3.76
2023-04-08T02:55:37.314Z,3.74
2023-04-08T02:58:05.838Z,3.67
2023-04-08T03:00:33.205Z,3.73
2023-04-08T03:03:01.564Z,3.68
2023-04-08T03:05:29.203Z,3.67
2023-04-08T03:07:56.480Z,3.55
2023-04-08T03:10:25.096Z,3.51
2023-04-08T03:12:52.736Z,3.47
2023-04-08T03:15:19.976Z,3.46
2023-04-08T03:17:47.560Z,3.40
2023-04-08T03:20:15.982Z,3.33
2023-04-08T03:22:43.515Z,3.18
2023-04-08T03:25:11.977Z,3.18
2023-04-08T03:27:39.519Z,3.18
2023-04-08T03:30:13.113Z,3.22
2023-04-08T03:32:42.613Z,3.26
2023-04-08T03:35:16.275Z,3.17
2023-04-08T03:37:43.636Z,3.22
2023-04-08T03:40:11.662Z,3.16
2023-04-08T03:42:39.133Z,3.26
2023-04-08T03:45:06.971Z,3.29
2023-04-08T03:47:34.672Z,3.18
2023-04-08T03:50:04.134Z,3.22
2023-04-08T03:52:31.426Z,3.30
2023-04-08T03:54:58.957Z,3.19
2023-04-08T03:57:26.137Z,3.22
2023-04-08T03:59:56.947Z,3.35
2023-04-08T04:02:26.218Z,3.45
2023-04-08T04:04:53.562Z,3.43
2023-04-08T04:07:20.887Z,3.44
2023-04-08T04:09:54.370Z,3.43
2023-04-08T04:12:21.941Z,3.44
2023-04-08T04:14:49.065Z,3.36
2023-04-08T04:17:16.684Z,3.34
2023-04-08T04:19:43.888Z,3.31
2023-04-08T04:22:11.011Z,3.38
2023-04-08T04:24:39.440Z,3.30
2023-04-08T04:27:06.802Z,3.24
2023-04-08T04:29:34.258Z,3.26
2023-04-08T04:32:01.669Z,3.26
2023-04-08T04:34:29.221Z,3.23
2023-04-08T04:36:56.939Z,3.18
2023-04-08T04:39:24.128Z,3.19
2023-04-08T04:41:51.926Z,3.23
2023-04-08T04:44:20.041Z,3.12
2023-04-08T04:46:47.598Z,3.16
2023-04-08T04:49:14.938Z,3.28
2023-04-08T04:51:42.665Z,3.24
2023-04-08T04:54:09.793Z,3.27
2023-04-08T04:56:37.343Z,3.34
2023-04-08T04:59:05.867Z,3.39
2023-04-08T05:01:35.749Z,3.37
2023-04-08T05:04:03.241Z,3.30
2023-04-08T05:06:31.915Z,3.32
2023-04-08T05:09:01.450Z,3.47
2023-04-08T05:11:29.781Z,3.48
2023-04-08T05:13:57.176Z,3.46
2023-04-08T05:16:24.775Z,3.58
2023-04-08T05:18:53.254Z,3.52
2023-04-08T05:21:21.872Z,3.56
2023-04-08T05:23:53.172Z,3.65
2023-04-08T05:26:22.156Z,3.54
2023-04-08T05:28:51.699Z,3.56
2023-04-08T05:31:31.495Z,3.62
2023-04-08T05:33:58.899Z,3.43
2023-04-08T05:36:27.634Z,3.55
2023-04-08T05:38:54.853Z,3.47
2023-04-08T05:41:24.304Z,3.46
2023-04-08T05:43:51.841Z,3.45
2023-04-08T05:46:19.301Z,3.51
2023-04-08T05:48:47.145Z,3.55
2023-04-08T05:51:18.350Z,3.62
2023-04-08T05:53:48.328Z,3.66
2023-04-08T05:56:22.126Z,3.64
2023-04-08T05:58:50.914Z,3.54
2023-04-08T06:01:18.451Z,3.52
2023-04-08T06:03:45.909Z,3.54
2023-04-08T06:06:13.389Z,3.44
2023-04-08T06:08:41.501Z,3.41
2023-04-08T06:11:08.851Z,3.42
2023-04-08T06:13:38.678Z,3.37
2023-04-08T06:16:15.231Z,3.34
2023-04-08T06:18:42.565Z,3.35
2023-04-08T06:21:12.029Z,3.40
2023-04-08T06:23:39.378Z,3.46
2023-04-08T06:26:06.715Z,3.52
2023-04-08T06:28:33.846Z,3.55
2023-04-08T06:31:01.322Z,3.54
2023-04-08T06:33:28.753Z,3.64
2023-04-08T06:36:04.397Z,3.64
2023-04-08T06:38:35.116Z,3.62
2023-04-08T06:41:06.831Z,3.66
2023-04-08T06:43:40.726Z,3.70
2023-04-08T06:46:10.065Z,3.72
2023-04-08T06:48:38.101Z,3.76
2023-04-08T06:51:08.326Z,3.76
2023-04-08T06:53:35.686Z,3.78
2023-04-08T06:56:03.073Z,3.88
2023-04-08T06:58:30.431Z,3.91
2023-04-08T07:01:01.654Z,3.97
2023-04-08T07:03:29.610Z,3.98
2023-04-08T07:05:57.104Z,4.03
2023-04-08T07:08:24.737Z,4.12
2023-04-08T07:10:53.381Z,4.29
2023-04-08T07:13:21.723Z,4.38
2023-04-08T07:15:49.004Z,4.50
2023-04-08T07:18:18.297Z,4.52
2023-04-08T07:20:54.102Z,4.61
2023-04-08T07:23:21.805Z,4.61
2023-04-08T07:25:49.431Z,4.61
2023-04-08T07:28:17.904Z,4.63
2023-04-08T07:30:45.424Z,4.62
2023-04-08T07:33:13.364Z,4.69
2023-04-08T07:35:42.356Z,4.77
2023-04-08T07:38:11.826Z,4.73
2023-04-08T07:40:40.058Z,4.69
2023-04-08T07:43:09.803Z,4.84
2023-04-08T07:45:36.821Z,4.89
2023-04-08T07:48:04.603Z,4.90
2023-04-08T07:50:32.016Z,4.89
2023-04-08T07:52:59.293Z,5.06
2023-04-08T07:55:26.916Z,5.15
2023-04-08T07:57:59.929Z,5.07
2023-04-08T08:00:28.220Z,5.17
2023-04-08T08:02:55.490Z,5.26
2023-04-08T08:05:22.867Z,5.45
2023-04-08T08:07:50.779Z,5.39
2023-04-08T08:10:19.318Z,5.43
2023-04-08T08:12:47.808Z,5.40
2023-04-08T08:15:15.483Z,5.48
2023-04-08T08:17:42.717Z,5.60
2023-04-08T08:20:10.788Z,5.82
2023-04-08T08:22:50.851Z,5.85
2023-04-08T08:25:26.237Z,5.87
2023-04-08T08:27:53.652Z,5.93
2023-04-08T08:30:22.599Z,5.97
2023-04-08T08:32:52.570Z,6.09
2023-04-08T08:35:21.183Z,6.06
2023-04-08T08:37:48.691Z,5.99
2023-04-08T08:40:17.064Z,6.21
2023-04-08T08:42:52.650Z,6.42
2023-04-08T08:45:22.721Z,6.54
2023-04-08T08:47:52.276Z,6.61
2023-04-08T08:50:19.978Z,6.54
2023-04-08T08:52:53.546Z,6.62
2023-04-08T08:55:36.643Z,6.78
2023-04-08T08:58:14.748Z,6.86
2023-04-08T09:00:47.836Z,6.81
2023-04-08T09:03:24.998Z,6.78
2023-04-08T09:05:55.173Z,6.86
2023-04-08T09:08:29.719Z,7.07
2023-04-08T09:11:11.848Z,7.37
2023-04-08T09:13:51.685Z,7.60
2023-04-08T09:16:23.548Z,7.78
2023-04-08T09:18:51.000Z,7.96
2023-04-08T09:21:22.717Z,7.93
2023-04-08T09:23:52.187Z,8.00
2023-04-08T09:26:25.026Z,8.03
2023-04-08T09:29:24.915Z,8.07
2023-04-08T09:32:00.335Z,7.80
2023-04-08T09:34:29.843Z,7.89
2023-04-08T09:36:57.250Z,8.11
2023-04-08T09:39:24.823Z,8.26
2023-04-08T09:41:53.136Z,8.29
2023-04-08T09:44:22.284Z,8.17
2023-04-08T09:46:52.915Z,8.27
2023-04-08T09:49:29.093Z,8.41
2023-04-08T09:52:12.110Z,8.54
2023-04-08T09:55:13.818Z,8.75
2023-04-08T09:57:47.747Z,9.09
2023-04-08T10:00:16.996Z,9.30
2023-04-08T10:03:12.460Z,9.33
2023-04-08T10:05:44.101Z,9.36
2023-04-08T10:08:11.861Z,9.47
2023-04-08T10:10:41.928Z,9.15
2023-04-08T10:13:09.983Z,9.17
2023-04-08T10:15:39.818Z,9.47
2023-04-08T10:18:09.714Z,9.81
2023-04-08T10:20:38.258Z,10.16
2023-04-08T10:23:17.215Z,10.42
2023-04-08T10:25:49.377Z,10.75
2023-04-08T10:28:19.552Z,11.23
2023-04-08T10:30:53.412Z,11.83
2023-04-08T10:33:36.072Z,12.58
2023-04-08T10:36:15.640Z,12.86
2023-04-08T10:38:44.095Z,12.98
2023-04-08T10:41:14.574Z,13.25
2023-04-08T10:43:42.064Z,13.55
2023-04-08T10:46:12.156Z,14.22
2023-04-08T10:48:39.777Z,14.62
2023-04-08T10:51:07.104Z,14.92
2023-04-08T10:53:36.408Z,14.59
2023-04-08T10:56:18.125Z,14.35
2023-04-08T10:58:50.247Z,13.98
2023-04-08T11:01:18.067Z,13.66
2023-04-08T11:03:45.734Z,13.13
2023-04-08T11:06:13.406Z,13.03
2023-04-08T11:08:41.889Z,12.88
2023-04-08T11:11:11.896Z,12.91
2023-04-08T11:13:52.194Z,13.09
2023-04-08T11:16:23.327Z,13.24
2023-04-08T11:18:51.832Z,13.30
2023-04-08T11:21:22.532Z,13.19
2023-04-08T11:23:55.073Z,13.07
2023-04-08T11:26:26.006Z,13.15
2023-04-08T11:28:56.481Z,13.52
2023-04-08T11:31:24.976Z,14.39
2023-04-08T11:33:54.850Z,14.92
2023-04-08T11:36:22.657Z,15.03
2023-04-08T11:38:50.370Z,15.13
2023-04-08T11:41:24.935Z,15.18
2023-04-08T11:43:57.392Z,15.66
2023-04-08T11:46:25.224Z,15.97
2023-04-08T11:49:08.237Z,16.17
2023-04-08T11:51:56.686Z,16.88
2023-04-08T11:54:31.490Z,16.32
2023-04-08T11:56:59.791Z,16.05
2023-04-08T11:59:29.326Z,16.85
2023-04-08T12:01:57.695Z,17.15
2023-04-08T12:04:25.603Z,16.58
2023-04-08T12:06:53.664Z,16.26
2023-04-08T12:09:20.809Z,15.95
2023-04-08T12:11:53.236Z,15.77
2023-04-08T12:14:22.329Z,15.54
2023-04-08T12:16:49.626Z,14.59
2023-04-08T12:19:17.113Z,14.25
2023-04-08T12:21:44.556Z,13.65
2023-04-08T12:24:12.075Z,13.27
2023-04-08T12:26:39.572Z,12.87
2023-04-08T12:29:09.667Z,12.70
2023-04-08T12:31:39.055Z,12.42
2023-04-08T12:34:07.250Z,12.64
2023-04-08T12:36:34.522Z,12.61
2023-04-08T12:39:02.965Z,12.65
2023-04-08T12:41:30.444Z,12.76
2023-04-08T12:43:58.849Z,12.94
2023-04-08T12:46:26.436Z,13.24
2023-04-08T12:49:04.693Z,13.39
2023-04-08T12:51:32.711Z,13.18
2023-04-08T12:54:00.990Z,13.15
2023-04-08T12:56:28.360Z,13.09
2023-04-08T12:58:56.921Z,12.90
2023-04-08T13:01:24.302Z,12.57
2023-04-08T13:03:51.913Z,12.53
2023-04-08T13:06:19.130Z,12.42
2023-04-08T13:08:48.576Z,12.20
2023-04-08T13:11:16.345Z,11.92
2023-04-08T13:13:46.666Z,11.80
2023-04-08T13:16:14.711Z,11.85
2023-04-08T13:18:42.496Z,11.92
2023-04-08T13:21:10.658Z,11.75
2023-04-08T13:23:37.966Z,11.61
2023-04-08T13:26:11.079Z,11.41
2023-04-08T13:28:46.668Z,11.16
2023-04-08T13:31:21.372Z,11.23
2023-04-08T13:33:50.288Z,11.33
2023-04-08T13:36:17.300Z,11.43
2023-04-08T13:38:46.375Z,11.49
2023-04-08T13:41:13.625Z,11.57
2023-04-08T13:43:43.725Z,11.64
2023-04-08T13:46:10.708Z,11.79
2023-04-08T13:48:38.040Z,11.95
2023-04-08T13:51:06.098Z,11.95
2023-04-08T13:53:34.031Z,12.02
2023-04-08T13:56:07.166Z,11.98
2023-04-08T13:58:35.085Z,12.07
2023-04-08T14:01:04.431Z,12.12
2023-04-08T14:03:31.683Z,12.09
2023-04-08T14:06:01.572Z,12.15
2023-04-08T14:08:29.023Z,12.21
2023-04-08T14:10:56.432Z,12.16
2023-04-08T14:13:23.691Z,12.14
2023-04-08T14:15:52.502Z,12.09
2023-04-08T14:18:21.667Z,11.87
2023-04-08T14:20:49.922Z,11.74
2023-04-08T14:23:17.926Z,11.73
2023-04-08T14:25:44.851Z,11.55
2023-04-08T14:28:11.781Z,11.47
2023-04-08T14:30:38.715Z,11.33
2023-04-08T14:33:11.788Z,11.25
2023-04-08T14:35:39.823Z,11.16
2023-04-08T14:38:07.296Z,11.06
2023-04-08T14:40:36.476Z,10.96
2023-04-08T14:43:04.729Z,10.92
2023-04-08T14:45:33.493Z,10.90
2023-04-08T14:48:01.716Z,10.88
2023-04-08T14:50:29.705Z,10.84
2023-04-08T14:52:56.512Z,10.84
2023-04-08T14:55:24.377Z,10.76
2023-04-08T14:57:51.345Z,10.74
2023-04-08T15:00:19.830Z,10.76
2023-04-08T15:02:47.877Z,10.70
2023-04-08T15:05:16.629Z,10.72
2023-04-08T15:07:44.952Z,10.65
2023-04-08T15:10:12.285Z,10.69
2023-04-08T15:12:40.528Z,10.62
2023-04-08T15:15:07.872Z,10.73
2023-04-08T15:17:35.163Z,10.72
2023-04-08T15:20:02.175Z,10.80
2023-04-08T15:22:29.533Z,10.84
2023-04-08T15:24:56.484Z,10.88
2023-04-08T15:27:23.479Z,10.90
2023-04-08T15:29:51.482Z,10.95
2023-04-08T15:32:18.339Z,10.96
2023-04-08T15:34:47.854Z,11.00
2023-04-08T15:37:14.754Z,11.00
2023-04-08T15:39:48.994Z,10.97
2023-04-08T15:42:15.946Z,10.97
2023-04-08T15:44:43.244Z,11.03
2023-04-08T15:47:10.344Z,10.90
2023-04-08T15:49:44.230Z,10.82
2023-04-08T15:52:12.635Z,10.67
2023-04-08T15:54:39.786Z,10.68
2023-04-08T15:57:06.683Z,10.61
2023-04-08T15:59:33.619Z,10.65
2023-04-08T16:02:01.020Z,10.75
2023-04-08T16:04:29.113Z,10.73
2023-04-08T16:06:56.520Z,10.70
2023-04-08T16:09:26.954Z,10.63
2023-04-08T16:11:54.215Z,10.68
2023-04-08T16:14:21.666Z,10.61
2023-04-08T16:16:49.552Z,10.67
2023-04-08T16:19:16.700Z,10.65
2023-04-08T16:21:44.988Z,10.63
2023-04-08T16:24:11.808Z,10.57
2023-04-08T16:26:41.070Z,10.57
2023-04-08T16:29:08.673Z,10.48
2023-04-08T16:31:36.863Z,10.50
2023-04-08T16:34:05.309Z,10.43
2023-04-08T16:36:34.380Z,10.42
2023-04-08T16:39:01.510Z,10.31
2023-04-08T16:41:28.692Z,10.25
2023-04-08T16:43:55.792Z,10.20
2023-04-08T16:46:22.746Z,10.16
2023-04-08T16:48:50.089Z,10.08
2023-04-08T16:51:17.868Z,10.04
2023-04-08T16:53:45.146Z,10.22
2023-04-08T16:56:16.092Z,10.14
2023-04-08T16:58:43.577Z,10.15
2023-04-08T17:01:11.586Z,10.18
2023-04-08T17:03:39.213Z,10.12
2023-04-08T17:06:10.139Z,10.04
2023-04-08T17:08:37.065Z,10.13
2023-04-08T17:11:13.167Z,10.21
2023-04-08T17:13:41.615Z,10.14
2023-04-08T17:16:12.591Z,10.08
2023-04-08T17:18:40.980Z,9.94
2023-04-08T17:21:08.187Z,9.78
2023-04-08T17:23:35.268Z,9.71
2023-04-08T17:26:09.194Z,9.70
2023-04-08T17:28:36.642Z,9.75
2023-04-08T17:31:03.748Z,9.70
2023-04-08T17:33:30.729Z,9.55
2023-04-08T17:35:59.014Z,9.20
2023-04-08T17:38:26.220Z,9.19
2023-04-08T17:40:53.538Z,9.18
2023-04-08T17:43:20.962Z,9.26
2023-04-08T17:45:50.357Z,9.15
2023-04-08T17:48:17.668Z,9.22
2023-04-08T17:50:44.910Z,9.13
2023-04-08T17:53:11.787Z,8.95
2023-04-08T17:55:38.735Z,8.96
2023-04-08T17:58:05.647Z,8.89
2023-04-08T18:00:33.908Z,8.93
2023-04-08T18:03:01.641Z,8.84
2023-04-08T18:05:30.376Z,8.87
2023-04-08T18:07:58.813Z,8.85
2023-04-08T18:10:27.936Z,8.79
2023-04-08T18:13:10.256Z,8.71
2023-04-08T18:15:38.646Z,8.74
2023-04-08T18:18:05.987Z,8.71
2023-04-08T18:20:38.550Z,8.65
2023-04-08T18:23:05.728Z,8.58
2023-04-08T18:25:34.782Z,8.60
2023-04-08T18:28:03.982Z,8.42
2023-04-08T18:30:30.854Z,8.43
2023-04-08T18:32:57.956Z,8.46
2023-04-08T18:35:25.763Z,8.45
2023-04-08T18:37:52.752Z,8.33
2023-04-08T18:40:19.715Z,8.32
2023-04-08T18:42:46.624Z,8.11
2023-04-08T18:45:14.622Z,8.36
2023-04-08T18:47:42.747Z,8.33
2023-04-08T18:50:10.108Z,8.20
2023-04-08T18:52:37.858Z,8.20
2023-04-08T18:55:05.632Z,8.09
2023-04-08T18:57:33.578Z,8.16
2023-04-08T19:00:00.942Z,8.20
2023-04-08T19:02:28.954Z,8.07
2023-04-08T19:04:56.670Z,7.89
2023-04-08T19:07:24.857Z,7.77
2023-04-08T19:09:56.135Z,7.77
2023-04-08T19:12:23.318Z,7.55
2023-04-08T19:14:59.672Z,7.33
2023-04-08T19:17:26.908Z,7.12
2023-04-08T19:19:54.826Z,7.23
2023-04-08T19:22:21.982Z,7.44
2023-04-08T19:24:49.249Z,7.48
2023-04-08T19:27:17.240Z,7.46
2023-04-08T19:29:45.196Z,7.34
2023-04-08T19:32:12.840Z,7.33
2023-04-08T19:34:40.418Z,7.43
2023-04-08T19:37:07.729Z,7.42
2023-04-08T19:39:35.140Z,7.51
2023-04-08T19:42:02.263Z,7.44
2023-04-08T19:44:29.411Z,7.13
2023-04-08T19:46:58.005Z,7.38
2023-04-08T19:49:25.540Z,7.43
2023-04-08T19:51:52.927Z,7.24
2023-04-08T19:54:20.312Z,7.45
2023-04-08T19:56:47.702Z,7.51
2023-04-08T19:59:16.540Z,7.29
2023-04-08T20:01:45.764Z,7.10
2023-04-08T20:04:13.258Z,7.22
2023-04-08T20:06:40.699Z,7.35
2023-04-08T20:09:07.665Z,7.43
2023-04-08T20:11:38.227Z,7.35
2023-04-08T20:14:05.614Z,7.33
2023-04-08T20:16:32.931Z,7.34
2023-04-08T20:18:59.962Z,7.36
2023-04-08T20:21:28.120Z,7.32
2023-04-08T20:23:56.913Z,7.30
2023-04-08T20:26:24.960Z,7.45
2023-04-08T20:28:51.958Z,7.17
2023-04-08T20:31:20.336Z,7.14
2023-04-08T20:33:49.894Z,7.30
2023-04-08T20:36:17.831Z,7.06
2023-04-08T20:38:45.825Z,6.61
2023-04-08T20:41:17.625Z,6.60
2023-04-08T20:43:44.857Z,6.27
2023-04-08T20:46:11.756Z,6.20
2023-04-08T20:48:41.232Z,6.09
2023-04-08T20:51:08.175Z,6.18
2023-04-08T20:53:36.570Z,6.02
2023-04-08T20:56:04.133Z,6.20
2023-04-08T20:58:32.334Z,6.23
2023-04-08T21:01:00.205Z,6.16
2023-04-08T21:03:28.081Z,6.26
2023-04-08T21:05:57.093Z,6.20
2023-04-08T21:08:24.143Z,6.19
2023-04-08T21:10:52.526Z,6.23
2023-04-08T21:13:20.587Z,6.06
2023-04-08T21:15:47.535Z,5.99
2023-04-08T21:18:14.462Z,5.94
2023-04-08T21:20:41.932Z,5.90
2023-04-08T21:23:18.475Z,6.13
2023-04-08T21:25:45.642Z,6.40
2023-04-08T21:28:12.910Z,6.42
2023-04-08T21:30:40.006Z,6.51
2023-04-08T21:33:08.504Z,6.52
2023-04-08T21:35:36.085Z,6.50
2023-04-08T21:38:16.365Z,6.51
2023-04-08T21:40:43.602Z,6.26
2023-04-08T21:43:11.666Z,6.12
2023-04-08T21:45:38.949Z,6.05
2023-04-08T21:48:07.269Z,6.09
2023-04-08T21:50:34.389Z,5.93
2023-04-08T21:53:01.923Z,5.94
2023-04-08T21:55:29.720Z,5.82
2023-04-08T21:57:57.764Z,5.81
2023-04-08T22:00:24.857Z,5.95
2023-04-08T22:02:52.795Z,5.90
2023-04-08T22:05:21.304Z,5.81
2023-04-08T22:07:48.652Z,5.87
2023-04-08T22:10:15.909Z,5.78
2023-04-08T22:12:43.040Z,5.91
2023-04-08T22:15:10.828Z,5.83
2023-04-08T22:17:38.963Z,5.71
2023-04-08T22:20:06.781Z,5.63
2023-04-08T22:22:33.818Z,5.72
2023-04-08T22:25:12.636Z,5.67
2023-04-08T22:27:39.562Z,5.58
2023-04-08T22:30:08.141Z,5.52
2023-04-08T22:32:35.666Z,5.58
2023-04-08T22:35:03.021Z,5.57
2023-04-08T22:37:31.738Z,5.67
2023-04-08T22:40:01.523Z,5.62
2023-04-08T22:42:29.905Z,5.64
2023-04-08T22:45:05.297Z,5.64
2023-04-08T22:47:32.697Z,5.60
2023-04-08T22:49:59.962Z,5.60
2023-04-08T22:52:28.044Z,5.47
2023-04-08T22:54:55.765Z,5.50
2023-04-08T22:57:37.334Z,5.46
2023-04-08T23:00:05.384Z,5.59
2023-04-08T23:02:34.843Z,5.59
2023-04-08T23:05:04.291Z,5.61
2023-04-08T23:07:31.644Z,5.50
2023-04-08T23:09:58.558Z,5.48
2023-04-08T23:12:25.609Z,5.45
2023-04-08T23:14:53.007Z,5.43
2023-04-08T23:17:19.981Z,5.40
2023-04-08T23:19:47.353Z,5.56
2023-04-08T23:22:14.738Z,5.46
2023-04-08T23:24:42.896Z,5.43
2023-04-08T23:27:09.776Z,5.40
2023-04-08T23:29:38.781Z,5.36
2023-04-08T23:32:05.645Z,5.35
2023-04-08T23:34:36.033Z,5.38
2023-04-08T23:37:04.712Z,5.57
2023-04-08T23:39:32.245Z,5.69
2023-04-08T23:41:59.786Z,5.72
2023-04-08T23:44:27.179Z,5.81
2023-04-08T23:47:01.165Z,5.82
2023-04-08T23:49:28.184Z,5.97
2023-04-08T23:51:55.040Z,6.05
2023-04-08T23:54:24.104Z,6.07
2023-04-08T23:56:51.068Z,6.14
2023-04-08T23:59:17.987Z,6.21
